createdAt,value
2019-05-19T00:01:21.344Z,46.55
2019-05-19T00:03:49.503Z,47.55
2019-05-19T00:06:17.689Z,48.68
2019-05-19T00:08:45.878Z,49.95
2019-05-19T00:11:14.003Z,50.75
2019-05-19T00:13:42.174Z,49.45
2019-05-19T00:16:10.322Z,52.65
2019-05-19T00:18:38.437Z,51.55
2019-05-19T00:21:06.552Z,51.18
2019-05-19T00:23:34.693Z,52.90
2019-05-19T00:26:02.915Z,54.50
2019-05-19T00:28:31.050Z,50.92
2019-05-19T00:30:59.183Z,54.25
2019-05-19T00:33:27.343Z,54.80
2019-05-19T00:35:55.653Z,53.90
2019-05-19T00:38:23.871Z,55.28
2019-05-19T00:40:52.049Z,53.13
2019-05-19T00:43:20.188Z,56.05
2019-05-19T00:45:48.302Z,55.38
2019-05-19T00:48:16.420Z,56.18
2019-05-19T00:50:44.573Z,54.70
2019-05-19T00:53:12.699Z,57.15
2019-05-19T00:55:41.045Z,54.03
2019-05-19T00:58:09.967Z,55.65
2019-05-19T01:00:38.149Z,53.78
2019-05-19T01:03:06.307Z,57.05
2019-05-19T01:05:34.425Z,56.28
2019-05-19T01:08:03.769Z,54.93
2019-05-19T01:10:31.899Z,55.08
2019-05-19T01:13:00.008Z,57.35
2019-05-19T01:15:28.125Z,54.33
2019-05-19T01:17:56.265Z,55.45
2019-05-19T01:20:24.353Z,55.25
2019-05-19T01:22:52.475Z,54.75
2019-05-19T01:25:20.633Z,56.90
2019-05-19T01:27:48.758Z,53.85
2019-05-19T01:30:17.702Z,56.55
2019-05-19T01:32:45.829Z,56.02
2019-05-19T01:35:13.994Z,53.98
2019-05-19T01:37:42.098Z,54.30
2019-05-19T01:40:10.520Z,53.85
2019-05-19T01:42:38.695Z,54.50
2019-05-19T01:45:07.465Z,54.50
2019-05-19T01:47:35.574Z,52.65
2019-05-19T01:50:17.098Z,56.15
2019-05-19T01:52:33.844Z,53.25
2019-05-19T01:55:01.943Z,56.28
2019-05-19T01:57:30.163Z,57.78
2019-05-19T01:59:58.421Z,55.33
2019-05-19T02:02:26.545Z,56.30
2019-05-19T02:04:54.831Z,57.45
2019-05-19T02:07:22.966Z,56.92
2019-05-19T02:09:51.111Z,56.98
2019-05-19T02:12:19.274Z,56.40
2019-05-19T02:14:47.492Z,55.73
2019-05-19T02:17:15.743Z,55.75
2019-05-19T02:19:43.963Z,56.90
2019-05-19T02:22:12.042Z,55.12
2019-05-19T02:24:40.187Z,55.90
2019-05-19T02:27:08.342Z,58.28
2019-05-19T02:29:36.447Z,54.25
2019-05-19T02:32:04.608Z,56.08
2019-05-19T02:34:32.733Z,58.63
2019-05-19T02:37:00.922Z,59.18
2019-05-19T02:39:29.054Z,55.73
2019-05-19T02:41:59.559Z,55.70
2019-05-19T02:44:28.517Z,58.17
2019-05-19T02:46:58.073Z,56.15
2019-05-19T02:49:29.352Z,60.58
2019-05-19T02:51:58.213Z,57.53
2019-05-19T02:54:27.274Z,58.13
2019-05-19T02:56:56.416Z,59.55
2019-05-19T02:59:25.530Z,57.80
2019-05-19T03:01:53.652Z,58.60
2019-05-19T03:04:21.829Z,58.35
2019-05-19T03:06:49.971Z,60.63
2019-05-19T03:09:18.176Z,59.48
2019-05-19T03:11:46.310Z,59.42
2019-05-19T03:14:14.503Z,56.42
2019-05-19T03:16:42.641Z,59.18
2019-05-19T03:19:10.845Z,61.23
2019-05-19T03:21:38.979Z,60.28
2019-05-19T03:24:07.403Z,56.25
2019-05-19T03:26:35.519Z,57.98
2019-05-19T03:29:03.737Z,58.08
2019-05-19T03:31:31.910Z,55.95
2019-05-19T03:34:00.016Z,56.73
2019-05-19T03:36:28.154Z,59.75
2019-05-19T03:38:56.285Z,57.62
2019-05-19T03:41:24.460Z,55.63
2019-05-19T03:43:52.592Z,59.10
2019-05-19T03:46:20.711Z,59.88
2019-05-19T03:48:48.840Z,55.03
2019-05-19T03:51:30.031Z,56.77
2019-05-19T03:53:46.849Z,56.42
2019-05-19T03:56:14.975Z,57.83
2019-05-19T03:58:43.125Z,56.35
2019-05-19T04:01:11.235Z,56.90
2019-05-19T04:03:39.357Z,55.25
2019-05-19T04:06:07.807Z,57.03
2019-05-19T04:08:35.985Z,58.25
2019-05-19T04:11:04.100Z,58.15
2019-05-19T04:13:32.256Z,57.23
2019-05-19T04:16:00.391Z,56.77
2019-05-19T04:18:28.580Z,56.88
2019-05-19T04:20:56.981Z,57.35
2019-05-19T04:23:25.116Z,57.95
2019-05-19T04:25:53.415Z,59.27
2019-05-19T04:28:21.563Z,56.10
2019-05-19T04:30:49.702Z,57.90
2019-05-19T04:33:17.843Z,56.42
2019-05-19T04:35:46.021Z,57.13
2019-05-19T04:38:14.123Z,55.10
2019-05-19T04:40:42.567Z,55.35
2019-05-19T04:43:10.707Z,55.70
2019-05-19T04:45:38.840Z,56.33
2019-05-19T04:48:09.677Z,56.68
2019-05-19T04:50:36.869Z,56.88
2019-05-19T04:53:05.007Z,55.75
2019-05-19T04:55:33.138Z,54.48
2019-05-19T04:58:03.407Z,54.23
2019-05-19T05:00:31.506Z,54.48
2019-05-19T05:02:59.632Z,55.10
2019-05-19T05:05:27.808Z,53.68
2019-05-19T05:07:55.994Z,54.05
2019-05-19T05:10:24.109Z,55.23
2019-05-19T05:12:52.234Z,55.52
2019-05-19T05:15:20.373Z,56.23
2019-05-19T05:17:48.508Z,55.10
2019-05-19T05:20:16.654Z,54.13
2019-05-19T05:22:44.836Z,54.80
2019-05-19T05:25:13.553Z,55.23
2019-05-19T05:27:41.650Z,53.48
2019-05-19T05:30:10.374Z,53.02
2019-05-19T05:32:38.619Z,53.48
2019-05-19T05:35:07.169Z,52.65
2019-05-19T05:37:35.300Z,53.20
2019-05-19T05:40:04.054Z,52.58
2019-05-19T05:42:32.240Z,52.80
2019-05-19T05:45:00.400Z,53.02
2019-05-19T05:47:28.546Z,51.60
2019-05-19T05:49:56.716Z,52.73
2019-05-19T05:52:37.450Z,49.67
2019-05-19T05:54:54.704Z,50.55
2019-05-19T05:57:22.817Z,49.50
2019-05-19T05:59:50.961Z,49.55
2019-05-19T06:02:19.166Z,49.77
2019-05-19T06:04:47.303Z,49.70
2019-05-19T06:07:15.459Z,50.88
2019-05-19T06:09:43.595Z,48.35
2019-05-19T06:12:11.680Z,48.50
2019-05-19T06:14:39.823Z,49.45
2019-05-19T06:17:07.923Z,50.23
2019-05-19T06:19:36.044Z,50.23
2019-05-19T06:22:04.276Z,49.00
2019-05-19T06:24:32.417Z,48.00
2019-05-19T06:27:00.571Z,51.10
2019-05-19T06:29:28.705Z,50.50
2019-05-19T06:31:56.937Z,47.90
2019-05-19T06:34:25.184Z,50.30
2019-05-19T06:36:55.172Z,47.90
2019-05-19T06:39:23.215Z,48.42
2019-05-19T06:41:51.341Z,46.63
2019-05-19T06:44:19.456Z,47.05
2019-05-19T06:46:47.604Z,46.85
2019-05-19T06:49:15.745Z,46.65
2019-05-19T06:51:43.882Z,46.18
2019-05-19T06:54:12.038Z,48.83
2019-05-19T06:56:40.283Z,47.60
2019-05-19T06:59:08.444Z,46.40
2019-05-19T07:01:36.559Z,46.63
2019-05-19T07:04:04.732Z,47.43
2019-05-19T07:06:34.313Z,46.25
2019-05-19T07:09:02.865Z,45.67
2019-05-19T07:11:31.018Z,45.55
2019-05-19T07:14:02.756Z,45.65
2019-05-19T07:16:28.982Z,44.33
2019-05-19T07:18:57.157Z,44.30
2019-05-19T07:21:25.293Z,43.05
2019-05-19T07:23:53.411Z,43.78
2019-05-19T07:26:21.591Z,40.98
2019-05-19T07:28:49.704Z,41.18
2019-05-19T07:31:17.860Z,40.88
2019-05-19T07:33:46.315Z,39.48
2019-05-19T07:36:14.440Z,39.35
2019-05-19T07:38:42.570Z,40.52
2019-05-19T07:41:10.730Z,40.10
2019-05-19T07:43:38.937Z,39.38
2019-05-19T07:46:07.571Z,37.88
2019-05-19T07:48:35.667Z,38.90
2019-05-19T07:51:03.842Z,37.75
2019-05-19T07:53:42.545Z,37.20
2019-05-19T07:56:01.874Z,38.17
2019-05-19T07:58:30.023Z,36.58
2019-05-19T08:00:58.159Z,35.85
2019-05-19T08:03:26.266Z,34.25
2019-05-19T08:05:56.987Z,36.93
2019-05-19T08:08:24.329Z,35.63
2019-05-19T08:10:52.769Z,36.03
2019-05-19T08:13:20.922Z,35.40
2019-05-19T08:15:49.159Z,35.17
2019-05-19T08:18:17.306Z,34.38
2019-05-19T08:20:45.471Z,33.53
2019-05-19T08:23:13.611Z,34.58
2019-05-19T08:25:41.805Z,32.70
2019-05-19T08:28:10.018Z,33.55
2019-05-19T08:30:40.368Z,32.17
2019-05-19T08:35:35.917Z,31.60
2019-05-19T08:38:04.059Z,31.77
2019-05-19T08:40:32.267Z,33.15
2019-05-19T08:43:00.442Z,33.08
2019-05-19T08:45:28.612Z,31.87
2019-05-19T08:47:56.708Z,33.33
2019-05-19T08:50:24.813Z,31.62
2019-05-19T08:52:52.937Z,31.00
2019-05-19T08:55:21.174Z,30.40
2019-05-19T08:57:49.364Z,29.60
2019-05-19T09:00:17.503Z,29.15
2019-05-19T09:02:45.607Z,29.87
2019-05-19T09:05:13.747Z,29.12
2019-05-19T09:07:41.901Z,30.08
2019-05-19T09:10:10.031Z,29.48
2019-05-19T09:12:38.221Z,29.60
2019-05-19T09:15:06.732Z,29.67
2019-05-19T09:17:34.952Z,29.52
2019-05-19T09:20:03.618Z,29.37
2019-05-19T09:22:31.762Z,30.62
2019-05-19T09:24:59.900Z,30.10
2019-05-19T09:27:28.065Z,29.77
2019-05-19T09:29:56.232Z,31.12
2019-05-19T09:32:24.419Z,29.70
2019-05-19T09:34:52.544Z,29.27
2019-05-19T09:37:20.706Z,29.07
2019-05-19T09:39:48.890Z,30.95
2019-05-19T09:42:17.737Z,31.23
2019-05-19T09:44:45.842Z,30.65
2019-05-19T09:47:13.999Z,31.33
2019-05-19T09:49:42.087Z,31.37
2019-05-19T09:52:10.197Z,31.65
2019-05-19T09:54:45.124Z,31.45
2019-05-19T09:57:08.235Z,30.68
2019-05-19T09:59:36.371Z,31.27
2019-05-19T10:02:04.570Z,31.52
2019-05-19T10:04:32.680Z,30.48
2019-05-19T10:07:00.924Z,31.17
2019-05-19T10:09:58.041Z,31.35
2019-05-19T10:12:26.316Z,30.52
2019-05-19T10:14:54.561Z,28.10
2019-05-19T10:17:22.694Z,26.00
2019-05-19T10:19:50.934Z,30.88
2019-05-19T10:22:19.076Z,29.92
2019-05-19T10:25:03.680Z,29.95
2019-05-19T10:27:17.052Z,26.55
2019-05-19T10:29:45.190Z,26.90
2019-05-19T10:32:13.368Z,29.23
2019-05-19T10:34:41.507Z,27.98
2019-05-19T10:37:09.642Z,27.30
2019-05-19T10:39:37.769Z,29.12
2019-05-19T10:42:05.970Z,29.35
2019-05-19T10:44:34.209Z,28.73
2019-05-19T10:47:02.403Z,28.55
2019-05-19T10:49:30.549Z,30.02
2019-05-19T10:51:58.653Z,28.15
2019-05-19T10:54:26.775Z,28.62
2019-05-19T10:56:54.923Z,27.35
2019-05-19T10:59:23.062Z,27.42
2019-05-19T11:01:51.226Z,25.82
2019-05-19T11:04:19.327Z,26.73
2019-05-19T11:06:47.490Z,26.30
2019-05-19T11:09:15.699Z,25.97
2019-05-19T11:11:43.878Z,24.95
2019-05-19T11:14:12.145Z,26.20
2019-05-19T11:16:40.290Z,26.90
2019-05-19T11:19:08.474Z,24.75
2019-05-19T11:21:36.605Z,25.40
2019-05-19T11:24:04.832Z,25.57
2019-05-19T11:26:32.964Z,25.52
2019-05-19T11:29:01.135Z,25.77
2019-05-19T11:31:29.261Z,25.57
2019-05-19T11:33:57.595Z,24.98
2019-05-19T11:36:25.834Z,23.55
2019-05-19T11:38:54.015Z,22.22
2019-05-19T11:41:22.199Z,22.82
2019-05-19T11:43:50.345Z,22.48
2019-05-19T11:46:18.471Z,21.77
2019-05-19T11:48:46.727Z,21.33
2019-05-19T11:51:14.913Z,22.93
2019-05-19T11:53:43.079Z,22.52
2019-05-19T11:56:11.810Z,21.77
2019-05-19T11:58:39.996Z,23.32
2019-05-19T12:01:08.153Z,21.90
2019-05-19T12:03:36.320Z,22.93
2019-05-19T12:06:04.515Z,22.05
2019-05-19T12:08:32.650Z,21.82
2019-05-19T12:11:06.061Z,20.82
2019-05-19T12:13:35.040Z,21.95
2019-05-19T12:16:03.615Z,19.92
2019-05-19T12:18:32.152Z,20.45
2019-05-19T12:21:00.313Z,20.12
2019-05-19T12:23:28.441Z,18.62
2019-05-19T12:25:56.551Z,18.65
2019-05-19T12:28:24.639Z,18.90
2019-05-19T12:30:52.823Z,19.67
2019-05-19T12:33:20.976Z,19.32
2019-05-19T12:35:49.155Z,19.50
2019-05-19T12:38:17.325Z,19.82
2019-05-19T12:40:45.459Z,19.77
2019-05-19T12:43:13.585Z,18.65
2019-05-19T12:45:41.788Z,20.40
2019-05-19T12:48:09.868Z,19.77
2019-05-19T12:50:38.137Z,19.25
2019-05-19T12:53:06.209Z,19.12
2019-05-19T12:55:34.378Z,20.70
2019-05-19T12:58:02.546Z,20.40
2019-05-19T13:00:30.773Z,18.73
2019-05-19T13:02:58.916Z,20.02
2019-05-19T13:05:27.083Z,19.82
2019-05-19T13:07:55.207Z,18.40
2019-05-19T13:10:23.333Z,18.67
2019-05-19T13:12:51.597Z,20.15
2019-05-19T13:15:21.259Z,21.05
2019-05-19T13:17:49.704Z,20.25
2019-05-19T13:20:17.905Z,19.95
2019-05-19T13:22:46.042Z,19.20
2019-05-19T13:25:14.269Z,19.10
2019-05-19T13:27:42.409Z,19.62
2019-05-19T13:30:10.677Z,20.32
2019-05-19T13:32:38.873Z,23.25
2019-05-19T13:35:07.160Z,22.32
2019-05-19T13:37:35.335Z,22.42
2019-05-19T13:40:04.150Z,21.23
2019-05-19T13:42:32.361Z,22.60
2019-05-19T13:45:00.502Z,23.87
2019-05-19T13:47:28.617Z,22.98
2019-05-19T13:49:56.770Z,24.27
2019-05-19T13:52:24.915Z,24.15
2019-05-19T13:54:53.196Z,23.20
2019-05-19T13:57:21.377Z,22.22
2019-05-19T13:59:49.529Z,22.73
2019-05-19T14:02:17.669Z,24.00
2019-05-19T14:04:45.837Z,23.22
2019-05-19T14:07:13.984Z,22.42
2019-05-19T14:09:42.119Z,20.65
2019-05-19T14:12:10.303Z,20.25
2019-05-19T14:14:38.526Z,20.05
2019-05-19T14:17:06.667Z,20.00
2019-05-19T14:19:36.156Z,20.97
2019-05-19T14:22:04.310Z,20.82
2019-05-19T14:24:32.546Z,20.00
2019-05-19T14:27:02.078Z,20.77
2019-05-19T14:29:31.464Z,18.73
2019-05-19T14:31:59.623Z,17.60
2019-05-19T14:34:27.773Z,17.82
2019-05-19T14:36:55.876Z,16.95
2019-05-19T14:39:24.059Z,18.35
2019-05-19T14:41:52.272Z,17.55
2019-05-19T14:44:20.356Z,18.15
2019-05-19T14:46:48.496Z,17.82
2019-05-19T14:49:16.693Z,17.85
2019-05-19T14:51:44.860Z,16.95
2019-05-19T14:54:13.039Z,17.25
2019-05-19T14:56:41.244Z,19.40
2019-05-19T14:59:09.528Z,17.23
2019-05-19T15:01:37.704Z,17.67
2019-05-19T15:04:05.974Z,17.67
2019-05-19T15:06:34.154Z,16.93
2019-05-19T15:09:02.281Z,17.32
2019-05-19T15:11:30.498Z,16.97
2019-05-19T15:13:58.612Z,16.67
2019-05-19T15:16:26.777Z,15.45
2019-05-19T15:18:54.922Z,16.75
2019-05-19T15:21:23.040Z,15.15
2019-05-19T15:23:51.581Z,13.88
2019-05-19T15:26:19.734Z,14.75
2019-05-19T15:28:47.872Z,14.10
2019-05-19T15:31:16.016Z,13.85
2019-05-19T15:33:45.260Z,13.05
2019-05-19T15:36:13.365Z,14.00
2019-05-19T15:38:41.504Z,13.98
2019-05-19T15:41:09.631Z,14.18
2019-05-19T15:43:37.828Z,13.72
2019-05-19T15:46:05.992Z,14.90
2019-05-19T15:48:34.109Z,13.90
2019-05-19T15:51:02.329Z,13.43
2019-05-19T15:53:30.514Z,12.43
2019-05-19T15:55:58.681Z,12.53
2019-05-19T15:58:26.800Z,12.33
2019-05-19T16:00:55.022Z,11.75
2019-05-19T16:03:23.146Z,11.40
2019-05-19T16:05:51.257Z,11.95
2019-05-19T16:08:19.475Z,11.85
2019-05-19T16:10:47.676Z,12.73
2019-05-19T16:13:16.614Z,12.43
2019-05-19T16:15:44.769Z,12.60
2019-05-19T16:18:12.919Z,12.55
2019-05-19T16:20:41.026Z,13.72
2019-05-19T16:23:09.177Z,12.75
2019-05-19T16:25:37.306Z,13.68
2019-05-19T16:28:05.532Z,14.05
2019-05-19T16:30:33.699Z,13.43
2019-05-19T16:33:04.191Z,13.83
2019-05-19T16:37:59.672Z,13.88
2019-05-19T16:40:27.784Z,14.78
2019-05-19T16:42:55.945Z,15.50
2019-05-19T16:45:24.192Z,15.28
2019-05-19T16:47:52.359Z,15.13
2019-05-19T16:50:20.631Z,14.78
2019-05-19T16:52:48.899Z,14.50
2019-05-19T16:55:17.126Z,18.20
2019-05-19T16:57:45.280Z,17.55
2019-05-19T17:00:13.615Z,15.25
2019-05-19T17:02:41.808Z,16.12
2019-05-19T17:05:10.150Z,16.32
2019-05-19T17:07:38.348Z,16.37
2019-05-19T17:10:06.696Z,15.80
2019-05-19T17:12:34.884Z,15.65
2019-05-19T17:15:03.190Z,14.70
2019-05-19T17:17:34.346Z,15.38
2019-05-19T17:20:03.365Z,15.13
2019-05-19T17:22:31.890Z,14.80
2019-05-19T17:25:00.480Z,16.45
2019-05-19T17:27:28.759Z,15.78
2019-05-19T17:29:56.866Z,16.15
2019-05-19T17:32:24.986Z,21.12
2019-05-19T17:34:53.135Z,15.85
2019-05-19T17:37:21.288Z,16.17
2019-05-19T17:39:49.411Z,17.73
2019-05-19T17:42:17.559Z,18.85
2019-05-19T17:44:45.663Z,19.48
2019-05-19T17:47:13.792Z,18.42
2019-05-19T17:49:41.907Z,19.35
2019-05-19T17:52:10.025Z,19.73
2019-05-19T17:54:38.140Z,18.27
2019-05-19T17:57:06.288Z,16.85
2019-05-19T17:59:35.127Z,17.70
2019-05-19T18:02:03.274Z,21.80
2019-05-19T18:04:31.484Z,18.80
2019-05-19T18:06:59.640Z,19.25
2019-05-19T18:09:27.797Z,19.92
2019-05-19T18:11:55.909Z,19.05
2019-05-19T18:14:24.038Z,19.35
2019-05-19T18:16:52.287Z,20.85
2019-05-19T18:19:20.521Z,20.72
2019-05-19T18:21:48.829Z,21.95
2019-05-19T18:24:16.946Z,21.27
2019-05-19T18:26:45.099Z,22.90
2019-05-19T18:29:13.249Z,23.07
2019-05-19T18:31:41.403Z,24.52
2019-05-19T18:34:09.569Z,23.42
2019-05-19T18:36:37.746Z,25.92
2019-05-19T18:39:05.923Z,27.25
2019-05-19T18:41:34.045Z,28.52
2019-05-19T18:44:02.161Z,28.38
2019-05-19T18:46:30.322Z,30.00
2019-05-19T18:48:58.450Z,29.55
2019-05-19T18:51:26.979Z,31.30
2019-05-19T18:53:55.145Z,30.82
2019-05-19T18:56:23.299Z,30.80
2019-05-19T18:58:51.461Z,29.70
2019-05-19T19:01:19.630Z,29.77
2019-05-19T19:03:47.757Z,31.73
2019-05-19T19:06:15.881Z,31.37
2019-05-19T19:08:44.048Z,34.40
2019-05-19T19:11:12.163Z,33.13
2019-05-19T19:13:40.395Z,33.50
2019-05-19T19:16:08.500Z,34.23
2019-05-19T19:18:36.656Z,34.08
2019-05-19T19:21:04.861Z,33.98
2019-05-19T19:23:32.963Z,34.88
2019-05-19T19:26:01.208Z,33.83
2019-05-19T19:28:29.463Z,34.03
2019-05-19T19:30:57.726Z,33.70
2019-05-19T19:33:25.883Z,34.80
2019-05-19T19:35:54.043Z,33.88
2019-05-19T19:38:22.218Z,34.00
2019-05-19T19:40:50.364Z,35.15
2019-05-19T19:43:18.529Z,36.88
2019-05-19T19:45:46.631Z,35.98
2019-05-19T19:48:14.843Z,35.75
2019-05-19T19:50:43.012Z,35.95
2019-05-19T19:53:11.917Z,35.08
2019-05-19T19:55:40.030Z,35.52
2019-05-19T19:58:08.196Z,35.17
2019-05-19T20:00:43.772Z,36.83
2019-05-19T20:03:12.545Z,36.55
2019-05-19T20:05:40.891Z,36.90
2019-05-19T20:08:09.423Z,37.08
2019-05-19T20:10:38.188Z,38.02
2019-05-19T20:13:06.370Z,39.85
2019-05-19T20:15:35.222Z,39.85
2019-05-19T20:18:03.361Z,41.13
2019-05-19T20:20:31.504Z,42.05
2019-05-19T20:22:59.626Z,43.17
2019-05-19T20:25:27.733Z,44.13
2019-05-19T20:27:55.915Z,43.13
2019-05-19T20:30:35.134Z,43.63
2019-05-19T20:32:53.888Z,44.55
2019-05-19T20:35:25.029Z,44.18
2019-05-19T20:37:54.893Z,40.98
2019-05-19T20:40:23.068Z,43.40
2019-05-19T20:42:51.327Z,43.23
2019-05-19T20:45:19.489Z,42.40
2019-05-19T20:47:50.606Z,43.75
2019-05-19T20:50:21.102Z,41.83
2019-05-19T20:55:21.053Z,41.02
2019-05-19T20:57:51.809Z,42.78
2019-05-19T21:00:20.938Z,41.45
2019-05-19T21:02:52.828Z,45.10
2019-05-19T21:05:22.159Z,45.38
2019-05-19T21:07:50.308Z,45.85
2019-05-19T21:10:18.447Z,47.62
2019-05-19T21:12:49.287Z,47.48
2019-05-19T21:15:17.415Z,48.23
2019-05-19T21:17:45.553Z,46.05
2019-05-19T21:20:13.842Z,41.73
2019-05-19T21:22:41.973Z,41.45
2019-05-19T21:25:10.312Z,40.20
2019-05-19T21:27:38.471Z,37.35
2019-05-19T21:30:08.250Z,35.68
2019-05-19T21:32:36.408Z,36.40
2019-05-19T21:35:04.939Z,34.78
2019-05-19T21:37:33.050Z,33.53
2019-05-19T21:40:01.188Z,34.45
2019-05-19T21:42:29.322Z,34.48
2019-05-19T21:44:57.430Z,33.45
2019-05-19T21:47:25.550Z,33.15
2019-05-19T21:49:53.715Z,33.98
2019-05-19T21:52:21.882Z,32.78
2019-05-19T21:54:50.043Z,34.55
2019-05-19T21:57:18.168Z,31.35
2019-05-19T21:59:46.331Z,31.40
2019-05-19T22:02:14.492Z,32.78
2019-05-19T22:04:42.598Z,33.48
2019-05-19T22:07:10.783Z,34.43
2019-05-19T22:09:38.882Z,35.63
2019-05-19T22:12:06.992Z,35.25
2019-05-19T22:14:35.227Z,38.98
2019-05-19T22:17:03.397Z,38.10
2019-05-19T22:19:31.550Z,37.85
2019-05-19T22:21:59.699Z,39.42
2019-05-19T22:24:27.844Z,38.67
2019-05-19T22:26:56.012Z,38.05
2019-05-19T22:29:24.250Z,37.67
2019-05-19T22:31:52.376Z,37.85
2019-05-19T22:34:20.620Z,35.75
2019-05-19T22:36:48.699Z,36.33
2019-05-19T22:39:16.807Z,34.60
2019-05-19T22:41:44.997Z,32.90
2019-05-19T22:44:13.184Z,34.90
2019-05-19T22:46:41.412Z,33.90
2019-05-19T22:49:09.613Z,34.30
2019-05-19T22:51:37.799Z,35.70
2019-05-19T22:54:05.934Z,34.03
2019-05-19T22:56:34.060Z,34.43
2019-05-19T22:59:18.619Z,35.83
2019-05-19T23:01:34.399Z,35.05
2019-05-19T23:04:02.535Z,35.00
2019-05-19T23:06:30.678Z,36.48
2019-05-19T23:08:58.826Z,35.75
2019-05-19T23:11:27.000Z,34.20
2019-05-19T23:13:55.127Z,35.90
2019-05-19T23:16:23.256Z,36.10
2019-05-19T23:18:51.794Z,37.13
2019-05-19T23:21:19.926Z,36.65
2019-05-19T23:23:48.038Z,36.90
2019-05-19T23:26:16.267Z,37.80
2019-05-19T23:28:44.443Z,35.90
2019-05-19T23:31:12.563Z,37.65
2019-05-19T23:33:40.735Z,37.67
2019-05-19T23:36:08.847Z,39.67
2019-05-19T23:38:36.955Z,39.15
2019-05-19T23:41:05.104Z,39.18
2019-05-19T23:43:33.229Z,39.33
2019-05-19T23:46:01.346Z,38.85
2019-05-19T23:48:29.628Z,39.63
2019-05-19T23:50:57.787Z,38.88
2019-05-19T23:53:26.052Z,38.98
2019-05-19T23:55:54.201Z,37.08
2019-05-19T23:58:22.305Z,36.20
